NV38 weather

Klas Channel 8 Heliport
Las Vegas, Nevada, United States

Public forecast

Using degrees Fahrenheit for public forecast. Weather courtesy of forecast.io.

Closest aviation weather report (METAR) to Klas Channel 8 Heliport

Closest report is McCarran International Airport, 3.1 nm (5.7 km) S. Retrieved 2020/02/26 03:56 UTC (29 minutes ago):

KLAS 260356Z 03009KT 10SM CLR 12/M11 A3044 RMK AO2 SLP306 T01171111

Closest aviation forecast (TAF) to Klas Channel 8 Heliport

Closest forecast is McCarran International Airport, 3.1 nm (5.7 km) S. Retrieved 2020-02-26 00:30 UTC (4 hours ago):

TAF KLAS 252328Z 2600/2706 04011KT P6SM SKC FM260200 25007KT P6SM SKC FM261700 07005KT P6SM SKC FM270300 20005KT P6SM SKC